sensor_id;sensor_type;location;lat;lon;timestamp;pressure;altitude;pressure_sealevel;temperature
60936;BMP280;46804;51.786;19.520;2023-03-14T00:01:17;156772.47;;;10.17
60936;BMP280;46804;51.786;19.520;2023-03-14T00:05:20;156775.03;;;10.17
60936;BMP280;46804;51.786;19.520;2023-03-14T00:09:21;156780.16;;;10.19
60936;BMP280;46804;51.786;19.520;2023-03-14T00:13:22;156772.47;;;10.17
60936;BMP280;46804;51.786;19.520;2023-03-14T00:17:23;156800.69;;;10.27
60936;BMP280;46804;51.786;19.520;2023-03-14T00:21:23;156805.84;;;10.29
60936;BMP280;46804;51.786;19.520;2023-03-14T00:25:24;156813.53;;;10.32
60936;BMP280;46804;51.786;19.520;2023-03-14T00:29:25;156793.03;;;10.24
60936;BMP280;46804;51.786;19.520;2023-03-14T00:33:26;156814.78;;;10.33
60936;BMP280;46804;51.786;19.520;2023-03-14T00:37:27;156813.53;;;10.32
60936;BMP280;46804;51.786;19.520;2023-03-14T00:41:27;156819.94;;;10.35
60936;BMP280;46804;51.786;19.520;2023-03-14T00:45:28;156816.13;;;10.33
60936;BMP280;46804;51.786;19.520;2023-03-14T00:49:29;156810.97;;;10.31
60936;BMP280;46804;51.786;19.520;2023-03-14T00:53:35;156776.34;;;10.18
60936;BMP280;46804;51.786;19.520;2023-03-14T00:57:37;156793.03;;;10.24
60936;BMP280;46804;51.786;19.520;2023-03-14T01:01:39;156803.25;;;10.28
60936;BMP280;46804;51.786;19.520;2023-03-14T01:05:40;156778.88;;;10.19
60936;BMP280;46804;51.786;19.520;2023-03-14T01:09:41;156769.88;;;10.16
60936;BMP280;46804;51.786;19.520;2023-03-14T01:13:42;156764.78;;;10.14
60936;BMP280;46804;51.786;19.520;2023-03-14T01:17:43;156773.75;;;10.17
60936;BMP280;46804;51.786;19.520;2023-03-14T01:21:44;156787.88;;;10.22
60936;BMP280;46804;51.786;19.520;2023-03-14T01:25:45;156781.44;;;10.20
60936;BMP280;46804;51.786;19.520;2023-03-14T01:29:45;156768.59;;;10.15
60936;BMP280;46804;51.786;19.520;2023-03-14T01:33:47;156735.25;;;10.02
60936;BMP280;46804;51.786;19.520;2023-03-14T01:37:48;156703.22;;;9.90
60936;BMP280;46804;51.786;19.520;2023-03-14T01:41:49;156683.91;;;9.82
60936;BMP280;46804;51.786;19.520;2023-03-14T01:50:08;156663.41;;;9.75
60936;BMP280;46804;51.786;19.520;2023-03-14T01:58:19;156618.50;;;9.57
60936;BMP280;46804;51.786;19.520;2023-03-14T02:02:20;156612.09;;;9.55
60936;BMP280;46804;51.786;19.520;2023-03-14T02:06:26;156600.56;;;9.50
60936;BMP280;46804;51.786;19.520;2023-03-14T02:10:35;156551.81;;;9.32
60936;BMP280;46804;51.786;19.520;2023-03-14T02:14:37;156539.03;;;9.27
60936;BMP280;46804;51.786;19.520;2023-03-14T02:18:38;156518.50;;;9.19
60936;BMP280;46804;51.786;19.520;2023-03-14T02:22:44;156503.09;;;9.13
60936;BMP280;46804;51.786;19.520;2023-03-14T02:27:08;156483.88;;;9.06
60936;BMP280;46804;51.786;19.520;2023-03-14T02:31:09;156450.56;;;8.93
60936;BMP280;46804;51.786;19.520;2023-03-14T02:35:12;156406.97;;;8.76
60936;BMP280;46804;51.786;19.520;2023-03-14T02:39:24;156377.50;;;8.65
60936;BMP280;46804;51.786;19.520;2023-03-14T02:43:27;156353.16;;;8.55
60936;BMP280;46804;51.786;19.520;2023-03-14T02:47:29;156323.72;;;8.44
60936;BMP280;46804;51.786;19.520;2023-03-14T02:51:31;156308.31;;;8.38
60936;BMP280;46804;51.786;19.520;2023-03-14T02:55:32;156277.56;;;8.26
60936;BMP280;46804;51.786;19.520;2023-03-14T02:59:33;156262.22;;;8.20
60936;BMP280;46804;51.786;19.520;2023-03-14T03:03:34;156212.19;;;8.01
60936;BMP280;46804;51.786;19.520;2023-03-14T03:07:34;156203.22;;;7.98
60936;BMP280;46804;51.786;19.520;2023-03-14T03:11:35;156182.75;;;7.90
60936;BMP280;46804;51.786;19.520;2023-03-14T03:15:39;156154.56;;;7.79
60936;BMP280;46804;51.786;19.520;2023-03-14T03:19:40;156128.94;;;7.69
60936;BMP280;46804;51.786;19.520;2023-03-14T03:23:41;156107.16;;;7.61
60936;BMP280;46804;51.786;19.520;2023-03-14T03:27:41;156103.34;;;7.59
60936;BMP280;46804;51.786;19.520;2023-03-14T03:31:42;156102.03;;;7.59
60936;BMP280;46804;51.786;19.520;2023-03-14T03:35:48;156077.72;;;7.49
60936;BMP280;46804;51.786;19.520;2023-03-14T03:39:52;156066.22;;;7.45
60936;BMP280;46804;51.786;19.520;2023-03-14T03:43:52;156100.78;;;7.58
60936;BMP280;46804;51.786;19.520;2023-03-14T03:47:54;156095.66;;;7.56
60936;BMP280;46804;51.786;19.520;2023-03-14T03:51:55;156082.84;;;7.51
60936;BMP280;46804;51.786;19.520;2023-03-14T03:55:55;156089.25;;;7.54
60936;BMP280;46804;51.786;19.520;2023-03-14T03:59:56;156102.03;;;7.59
60936;BMP280;46804;51.786;19.520;2023-03-14T04:03:57;156089.25;;;7.54
60936;BMP280;46804;51.786;19.520;2023-03-14T04:07:58;156084.13;;;7.52
60936;BMP280;46804;51.786;19.520;2023-03-14T04:11:58;156093.09;;;7.55
60936;BMP280;46804;51.786;19.520;2023-03-14T04:15:59;156095.66;;;7.56
60936;BMP280;46804;51.786;19.520;2023-03-14T04:20:00;156089.25;;;7.54
60936;BMP280;46804;51.786;19.520;2023-03-14T04:24:01;156098.22;;;7.57
60936;BMP280;46804;51.786;19.520;2023-03-14T04:28:01;156108.50;;;7.61
60936;BMP280;46804;51.786;19.520;2023-03-14T04:32:03;156100.78;;;7.58
60936;BMP280;46804;51.786;19.520;2023-03-14T04:36:05;156109.75;;;7.62
60936;BMP280;46804;51.786;19.520;2023-03-14T04:40:07;156113.56;;;7.63
60936;BMP280;46804;51.786;19.520;2023-03-14T04:44:08;156098.22;;;7.57
60936;BMP280;46804;51.786;19.520;2023-03-14T04:48:08;156095.66;;;7.56
60936;BMP280;46804;51.786;19.520;2023-03-14T04:52:09;156117.41;;;7.65
60936;BMP280;46804;51.786;19.520;2023-03-14T04:56:10;156118.69;;;7.65
60936;BMP280;46804;51.786;19.520;2023-03-14T05:00:13;156123.81;;;7.67
60936;BMP280;46804;51.786;19.520;2023-03-14T05:04:14;156127.69;;;7.69
60936;BMP280;46804;51.786;19.520;2023-03-14T05:08:14;156126.41;;;7.68
60936;BMP280;46804;51.786;19.520;2023-03-14T05:12:15;156118.69;;;7.65
60936;BMP280;46804;51.786;19.520;2023-03-14T05:16:16;156121.28;;;7.66
60936;BMP280;46804;51.786;19.520;2023-03-14T05:20:17;156131.53;;;7.70
60936;BMP280;46804;51.786;19.520;2023-03-14T05:24:17;156120.00;;;7.66
60936;BMP280;46804;51.786;19.520;2023-03-14T05:28:18;156098.22;;;7.57
60936;BMP280;46804;51.786;19.520;2023-03-14T05:32:19;156104.63;;;7.60
60936;BMP280;46804;51.786;19.520;2023-03-14T05:36:20;156113.56;;;7.63
60936;BMP280;46804;51.786;19.520;2023-03-14T05:40:21;156116.16;;;7.64
60936;BMP280;46804;51.786;19.520;2023-03-14T05:44:21;156128.94;;;7.69
60936;BMP280;46804;51.786;19.520;2023-03-14T05:48:22;156166.09;;;7.83
60936;BMP280;46804;51.786;19.520;2023-03-14T05:52:23;156218.59;;;8.04
60936;BMP280;46804;51.786;19.520;2023-03-14T05:56:24;156253.22;;;8.17
60936;BMP280;46804;51.786;19.520;2023-03-14T06:00:24;156290.41;;;8.31
60936;BMP280;46804;51.786;19.520;2023-03-14T06:04:25;156346.78;;;8.53
60936;BMP280;46804;51.786;19.520;2023-03-14T06:08:26;156380.09;;;8.66
60936;BMP280;46804;51.786;19.520;2023-03-14T06:12:27;156413.38;;;8.79
60936;BMP280;46804;51.786;19.520;2023-03-14T06:16:27;156430.03;;;8.85
60936;BMP280;46804;51.786;19.520;2023-03-14T06:20:28;156433.88;;;8.86
60936;BMP280;46804;51.786;19.520;2023-03-14T06:24:29;156442.88;;;8.90
60936;BMP280;46804;51.786;19.520;2023-03-14T06:28:30;156514.63;;;9.17
60936;BMP280;46804;51.786;19.520;2023-03-14T06:32:30;156582.56;;;9.44
60936;BMP280;46804;51.786;19.520;2023-03-14T06:36:31;156604.38;;;9.52
60936;BMP280;46804;51.786;19.520;2023-03-14T06:40:32;156660.81;;;9.74
60936;BMP280;46804;51.786;19.520;2023-03-14T06:44:32;156740.38;;;10.04
60936;BMP280;46804;51.786;19.520;2023-03-14T06:48:33;156822.53;;;10.36
60936;BMP280;46804;51.786;19.520;2023-03-14T06:52:34;156907.22;;;10.68
60936;BMP280;46804;51.786;19.520;2023-03-14T06:56:35;156980.38;;;10.96
60936;BMP280;46804;51.786;19.520;2023-03-14T07:00:35;157017.59;;;11.11
60936;BMP280;46804;51.786;19.520;2023-03-14T07:04:36;157067.66;;;11.30
60936;BMP280;46804;51.786;19.520;2023-03-14T07:08:37;157079.22;;;11.34
60936;BMP280;46804;51.786;19.520;2023-03-14T07:12:39;157098.47;;;11.42
60936;BMP280;46804;51.786;19.520;2023-03-14T07:16:40;157108.78;;;11.46
60936;BMP280;46804;51.786;19.520;2023-03-14T07:20:41;157142.19;;;11.58
60936;BMP280;46804;51.786;19.520;2023-03-14T07:24:41;157156.34;;;11.64
60936;BMP280;46804;51.786;19.520;2023-03-14T07:28:42;157165.31;;;11.67
60936;BMP280;46804;51.786;19.520;2023-03-14T07:32:43;157162.75;;;11.66
60936;BMP280;46804;51.786;19.520;2023-03-14T07:36:43;157221.81;;;11.89
60936;BMP280;46804;51.786;19.520;2023-03-14T07:40:44;157305.34;;;12.21
60936;BMP280;46804;51.786;19.520;2023-03-14T07:44:45;157401.72;;;12.58
60936;BMP280;46804;51.786;19.520;2023-03-14T07:48:45;157458.31;;;12.80
60936;BMP280;46804;51.786;19.520;2023-03-14T07:52:46;157563.72;;;13.20
60936;BMP280;46804;51.786;19.520;2023-03-14T07:56:47;157440.28;;;12.73
60936;BMP280;46804;51.786;19.520;2023-03-14T08:00:48;157430.00;;;12.69
60936;BMP280;46804;51.786;19.520;2023-03-14T08:04:50;157420.97;;;12.65
60936;BMP280;46804;51.786;19.520;2023-03-14T08:08:50;157341.31;;;12.35
60936;BMP280;46804;51.786;19.520;2023-03-14T08:12:54;157338.75;;;12.34
60936;BMP280;46804;51.786;19.520;2023-03-14T08:16:56;157323.31;;;12.28
60936;BMP280;46804;51.786;19.520;2023-03-14T08:20:57;157365.75;;;12.44
60936;BMP280;46804;51.786;19.520;2023-03-14T08:24:59;157386.28;;;12.52
60936;BMP280;46804;51.786;19.520;2023-03-14T08:29:00;157381.16;;;12.50
60936;BMP280;46804;51.786;19.520;2023-03-14T08:33:03;157329.75;;;12.30
60936;BMP280;46804;51.786;19.520;2023-03-14T08:37:03;157340.03;;;12.34
60936;BMP280;46804;51.786;19.520;2023-03-14T08:41:05;157347.72;;;12.37
60936;BMP280;46804;51.786;19.520;2023-03-14T08:45:07;157379.88;;;12.50
60936;BMP280;46804;51.786;19.520;2023-03-14T08:49:08;157472.44;;;12.85
60936;BMP280;46804;51.786;19.520;2023-03-14T08:53:09;157517.44;;;13.02
60936;BMP280;46804;51.786;19.520;2023-03-14T08:57:09;157530.34;;;13.07
60936;BMP280;46804;51.786;19.520;2023-03-14T09:01:10;157496.91;;;12.94
60936;BMP280;46804;51.786;19.520;2023-03-14T09:05:11;157450.59;;;12.77
60936;BMP280;46804;51.786;19.520;2023-03-14T09:09:12;157441.56;;;12.73
60936;BMP280;46804;51.786;19.520;2023-03-14T09:13:14;157444.09;;;12.74
60936;BMP280;46804;51.786;19.520;2023-03-14T09:17:14;157508.47;;;12.99
60936;BMP280;46804;51.786;19.520;2023-03-14T09:21:15;157527.75;;;13.06
60936;BMP280;46804;51.786;19.520;2023-03-14T09:25:16;157595.88;;;13.32
60936;BMP280;46804;51.786;19.520;2023-03-14T09:29:16;157712.94;;;13.77
60936;BMP280;46804;51.786;19.520;2023-03-14T09:33:17;157787.59;;;14.06
60936;BMP280;46804;51.786;19.520;2023-03-14T09:37:18;158029.53;;;14.98
60936;BMP280;46804;51.786;19.520;2023-03-14T09:41:25;158323.25;;;16.11
60936;BMP280;46804;51.786;19.520;2023-03-14T09:45:33;158158.38;;;15.48
60936;BMP280;46804;51.786;19.520;2023-03-14T09:49:37;158242.09;;;15.80
60936;BMP280;46804;51.786;19.520;2023-03-14T09:53:42;158294.91;;;16.00
60936;BMP280;46804;51.786;19.520;2023-03-14T09:57:45;158130.03;;;15.37
60936;BMP280;46804;51.786;19.520;2023-03-14T10:01:48;158020.56;;;14.95
60936;BMP280;46804;51.786;19.520;2023-03-14T10:05:49;157920.13;;;14.57
60936;BMP280;46804;51.786;19.520;2023-03-14T10:09:50;157823.59;;;14.20
60936;BMP280;46804;51.786;19.520;2023-03-14T10:18:03;157792.75;;;14.08
60936;BMP280;46804;51.786;19.520;2023-03-14T10:22:04;157759.25;;;13.95
60936;BMP280;46804;51.786;19.520;2023-03-14T10:26:14;157772.16;;;14.00
60936;BMP280;46804;51.786;19.520;2023-03-14T10:34:38;157711.66;;;13.77
60936;BMP280;46804;51.786;19.520;2023-03-14T10:38:39;157691.06;;;13.69
60936;BMP280;46804;51.786;19.520;2023-03-14T10:42:42;157669.19;;;13.60
60936;BMP280;46804;51.786;19.520;2023-03-14T10:46:56;157665.31;;;13.59
60936;BMP280;46804;51.786;19.520;2023-03-14T10:55:12;157572.75;;;13.23
60936;BMP280;46804;51.786;19.520;2023-03-14T10:59:15;157598.47;;;13.33
60936;BMP280;46804;51.786;19.520;2023-03-14T11:03:16;157536.75;;;13.10
60936;BMP280;46804;51.786;19.520;2023-03-14T11:07:39;157460.88;;;12.81
60936;BMP280;46804;51.786;19.520;2023-03-14T11:11:42;157397.84;;;12.56
60936;BMP280;46804;51.786;19.520;2023-03-14T11:16:09;157358.00;;;12.41
60936;BMP280;46804;51.786;19.520;2023-03-14T11:28:37;157182.00;;;11.74
60936;BMP280;46804;51.786;19.520;2023-03-14T11:32:41;157151.19;;;11.62
60936;BMP280;46804;51.786;19.520;2023-03-14T11:36:51;157057.38;;;11.26
60936;BMP280;46804;51.786;19.520;2023-03-14T11:40:55;157018.84;;;11.11
60936;BMP280;46804;51.786;19.520;2023-03-14T11:44:58;156991.94;;;11.01
60936;BMP280;46804;51.786;19.520;2023-03-14T11:49:23;156967.50;;;10.91
60936;BMP280;46804;51.786;19.520;2023-03-14T11:53:40;156925.19;;;10.75
60936;BMP280;46804;51.786;19.520;2023-03-14T11:57:45;156918.75;;;10.73
60936;BMP280;46804;51.786;19.520;2023-03-14T12:02:09;156950.81;;;10.85
60936;BMP280;46804;51.786;19.520;2023-03-14T12:06:27;156832.78;;;10.40
60936;BMP280;46804;51.786;19.520;2023-03-14T12:10:29;156787.88;;;10.22
60936;BMP280;46804;51.786;19.520;2023-03-14T12:14:35;156762.19;;;10.13
60936;BMP280;46804;51.786;19.520;2023-03-14T12:18:39;156757.06;;;10.11
60936;BMP280;46804;51.786;19.520;2023-03-14T12:22:54;156709.63;;;9.92
60936;BMP280;46804;51.786;19.520;2023-03-14T12:27:06;156709.63;;;9.92
60936;BMP280;46804;51.786;19.520;2023-03-14T12:31:36;156672.34;;;9.78
60936;BMP280;46804;51.786;19.520;2023-03-14T12:43:54;156736.56;;;10.03
60936;BMP280;46804;51.786;19.520;2023-03-14T12:52:16;156698.03;;;9.88
60936;BMP280;46804;51.786;19.520;2023-03-14T13:00:54;156663.41;;;9.75
60936;BMP280;46804;51.786;19.520;2023-03-14T13:05:04;156623.66;;;9.59
60936;BMP280;46804;51.786;19.520;2023-03-14T13:13:35;156640.31;;;9.66
60936;BMP280;46804;51.786;19.520;2023-03-14T13:17:36;156637.72;;;9.65
60936;BMP280;46804;51.786;19.520;2023-03-14T13:21:37;156644.13;;;9.67
60936;BMP280;46804;51.786;19.520;2023-03-14T13:25:38;156604.38;;;9.52
60936;BMP280;46804;51.786;19.520;2023-03-14T13:29:38;156615.94;;;9.56
60936;BMP280;46804;51.786;19.520;2023-03-14T13:33:40;156604.38;;;9.52
60936;BMP280;46804;51.786;19.520;2023-03-14T13:37:41;156640.31;;;9.66
60936;BMP280;46804;51.786;19.520;2023-03-14T13:41:42;156615.94;;;9.56
60936;BMP280;46804;51.786;19.520;2023-03-14T13:45:50;156628.78;;;9.61
60936;BMP280;46804;51.786;19.520;2023-03-14T13:49:52;156618.50;;;9.57
60936;BMP280;46804;51.786;19.520;2023-03-14T13:53:55;156612.09;;;9.55
60936;BMP280;46804;51.786;19.520;2023-03-14T13:57:55;156605.66;;;9.52
60936;BMP280;46804;51.786;19.520;2023-03-14T14:01:59;156600.56;;;9.50
60936;BMP280;46804;51.786;19.520;2023-03-14T14:06:01;156605.66;;;9.52
60936;BMP280;46804;51.786;19.520;2023-03-14T14:10:02;156618.50;;;9.57
60936;BMP280;46804;51.786;19.520;2023-03-14T14:14:04;156633.88;;;9.63
60936;BMP280;46804;51.786;19.520;2023-03-14T14:18:09;156641.59;;;9.66
60936;BMP280;46804;51.786;19.520;2023-03-14T14:22:12;156639.00;;;9.65
60936;BMP280;46804;51.786;19.520;2023-03-14T14:26:16;156644.13;;;9.67
60936;BMP280;46804;51.786;19.520;2023-03-14T14:34:19;156698.03;;;9.88
60936;BMP280;46804;51.786;19.520;2023-03-14T14:38:20;156705.75;;;9.91
60936;BMP280;46804;51.786;19.520;2023-03-14T14:42:25;156703.22;;;9.90
60936;BMP280;46804;51.786;19.520;2023-03-14T14:46:30;156705.75;;;9.91
60936;BMP280;46804;51.786;19.520;2023-03-14T14:50:34;156707.03;;;9.91
60936;BMP280;46804;51.786;19.520;2023-03-14T14:54:43;156716.03;;;9.95
60936;BMP280;46804;51.786;19.520;2023-03-14T14:58:46;156722.44;;;9.97
60936;BMP280;46804;51.786;19.520;2023-03-14T15:02:50;156716.03;;;9.95
60936;BMP280;46804;51.786;19.520;2023-03-14T15:06:52;156739.13;;;10.04
60936;BMP280;46804;51.786;19.520;2023-03-14T15:10:54;156767.34;;;10.15
60936;BMP280;46804;51.786;19.520;2023-03-14T15:14:55;156771.19;;;10.16
60936;BMP280;46804;51.786;19.520;2023-03-14T15:19:00;156784.03;;;10.21
60936;BMP280;46804;51.786;19.520;2023-03-14T15:23:00;156784.03;;;10.21
60936;BMP280;46804;51.786;19.520;2023-03-14T15:27:01;156789.16;;;10.23
60936;BMP280;46804;51.786;19.520;2023-03-14T15:31:02;156786.56;;;10.22
60936;BMP280;46804;51.786;19.520;2023-03-14T15:35:03;156773.75;;;10.17
60936;BMP280;46804;51.786;19.520;2023-03-14T15:39:06;156767.34;;;10.15
60936;BMP280;46804;51.786;19.520;2023-03-14T15:43:08;156764.78;;;10.14
60936;BMP280;46804;51.786;19.520;2023-03-14T15:47:10;156762.19;;;10.13
60936;BMP280;46804;51.786;19.520;2023-03-14T15:51:13;156767.34;;;10.15
60936;BMP280;46804;51.786;19.520;2023-03-14T15:55:15;156775.03;;;10.17
60936;BMP280;46804;51.786;19.520;2023-03-14T15:59:16;156767.34;;;10.15
60936;BMP280;46804;51.786;19.520;2023-03-14T16:03:17;156749.38;;;10.08
60936;BMP280;46804;51.786;19.520;2023-03-14T16:07:19;156736.56;;;10.03
60936;BMP280;46804;51.786;19.520;2023-03-14T16:11:26;156718.56;;;9.96
60936;BMP280;46804;51.786;19.520;2023-03-14T16:15:27;156705.75;;;9.91
60936;BMP280;46804;51.786;19.520;2023-03-14T16:19:29;156701.91;;;9.89
60936;BMP280;46804;51.786;19.520;2023-03-14T16:23:34;156689.03;;;9.84
60936;BMP280;46804;51.786;19.520;2023-03-14T16:27:36;156682.63;;;9.82
60936;BMP280;46804;51.786;19.520;2023-03-14T16:31:38;156658.28;;;9.73
60936;BMP280;46804;51.786;19.520;2023-03-14T16:35:56;156639.00;;;9.65
60936;BMP280;46804;51.786;19.520;2023-03-14T16:39:58;156595.44;;;9.48
60936;BMP280;46804;51.786;19.520;2023-03-14T16:44:00;156591.56;;;9.47
60936;BMP280;46804;51.786;19.520;2023-03-14T16:48:04;156571.03;;;9.39
60936;BMP280;46804;51.786;19.520;2023-03-14T16:52:08;156533.91;;;9.25
60936;BMP280;46804;51.786;19.520;2023-03-14T16:56:10;156518.50;;;9.19
60936;BMP280;46804;51.786;19.520;2023-03-14T17:00:12;156482.63;;;9.05
60936;BMP280;46804;51.786;19.520;2023-03-14T17:04:14;156462.09;;;8.97
60936;BMP280;46804;51.786;19.520;2023-03-14T17:08:17;156445.41;;;8.91
60936;BMP280;46804;51.786;19.520;2023-03-14T17:12:20;156424.94;;;8.83
60936;BMP280;46804;51.786;19.520;2023-03-14T17:16:21;156428.75;;;8.84
60936;BMP280;46804;51.786;19.520;2023-03-14T17:20:22;156421.09;;;8.81
60936;BMP280;46804;51.786;19.520;2023-03-14T17:24:22;156392.91;;;8.71
60936;BMP280;46804;51.786;19.520;2023-03-14T17:28:24;156392.91;;;8.71
60936;BMP280;46804;51.786;19.520;2023-03-14T17:32:25;156387.75;;;8.69
60936;BMP280;46804;51.786;19.520;2023-03-14T17:36:26;156374.97;;;8.64
60936;BMP280;46804;51.786;19.520;2023-03-14T17:40:30;156373.66;;;8.63
60936;BMP280;46804;51.786;19.520;2023-03-14T17:44:31;156354.44;;;8.56
60936;BMP280;46804;51.786;19.520;2023-03-14T17:48:33;156377.50;;;8.65
60936;BMP280;46804;51.786;19.520;2023-03-14T17:52:34;156360.84;;;8.58
60936;BMP280;46804;51.786;19.520;2023-03-14T17:56:36;156339.06;;;8.50
60936;BMP280;46804;51.786;19.520;2023-03-14T18:00:37;156331.38;;;8.47
60936;BMP280;46804;51.786;19.520;2023-03-14T18:04:37;156316.00;;;8.41
60936;BMP280;46804;51.786;19.520;2023-03-14T18:08:39;156314.72;;;8.41
60936;BMP280;46804;51.786;19.520;2023-03-14T18:12:43;156305.72;;;8.37
60936;BMP280;46804;51.786;19.520;2023-03-14T18:16:44;156275.00;;;8.25
60936;BMP280;46804;51.786;19.520;2023-03-14T18:20:50;156269.88;;;8.23
60936;BMP280;46804;51.786;19.520;2023-03-14T18:24:51;156250.69;;;8.16
60936;BMP280;46804;51.786;19.520;2023-03-14T18:28:53;156244.28;;;8.13
60936;BMP280;46804;51.786;19.520;2023-03-14T18:32:53;156242.97;;;8.13
60936;BMP280;46804;51.786;19.520;2023-03-14T18:36:54;156248.09;;;8.15
60936;BMP280;46804;51.786;19.520;2023-03-14T18:40:55;156234.03;;;8.10
60936;BMP280;46804;51.786;19.520;2023-03-14T18:44:56;156231.44;;;8.09
60936;BMP280;46804;51.786;19.520;2023-03-14T18:48:57;156230.19;;;8.08
60936;BMP280;46804;51.786;19.520;2023-03-14T18:53:03;156218.59;;;8.04
60936;BMP280;46804;51.786;19.520;2023-03-14T18:57:03;156236.56;;;8.11
60936;BMP280;46804;51.786;19.520;2023-03-14T19:01:04;156232.75;;;8.09
60936;BMP280;46804;51.786;19.520;2023-03-14T19:05:06;156230.19;;;8.08
60936;BMP280;46804;51.786;19.520;2023-03-14T19:09:12;156212.19;;;8.01
60936;BMP280;46804;51.786;19.520;2023-03-14T19:13:14;156210.94;;;8.01
60936;BMP280;46804;51.786;19.520;2023-03-14T19:17:14;156221.13;;;8.05
60936;BMP280;46804;51.786;19.520;2023-03-14T19:21:25;156244.28;;;8.13
60936;BMP280;46804;51.786;19.520;2023-03-14T19:25:26;156240.44;;;8.12
60936;BMP280;46804;51.786;19.520;2023-03-14T19:29:27;156249.38;;;8.15
60936;BMP280;46804;51.786;19.520;2023-03-14T19:33:28;156278.88;;;8.27
60936;BMP280;46804;51.786;19.520;2023-03-14T19:37:30;156269.88;;;8.23
60936;BMP280;46804;51.786;19.520;2023-03-14T19:41:31;156289.06;;;8.31
60936;BMP280;46804;51.786;19.520;2023-03-14T19:45:33;156317.25;;;8.42
60936;BMP280;46804;51.786;19.520;2023-03-14T19:49:33;156328.84;;;8.46
60936;BMP280;46804;51.786;19.520;2023-03-14T19:53:34;156349.31;;;8.54
60936;BMP280;46804;51.786;19.520;2023-03-14T19:57:35;156355.72;;;8.56
60936;BMP280;46804;51.786;19.520;2023-03-14T20:01:36;156368.56;;;8.61
60936;BMP280;46804;51.786;19.520;2023-03-14T20:05:39;156373.66;;;8.63
60936;BMP280;46804;51.786;19.520;2023-03-14T20:09:41;156390.31;;;8.70
60936;BMP280;46804;51.786;19.520;2023-03-14T20:13:42;156408.28;;;8.77
60936;BMP280;46804;51.786;19.520;2023-03-14T20:17:45;156418.50;;;8.80
60936;BMP280;46804;51.786;19.520;2023-03-14T20:21:46;156415.97;;;8.80
60936;BMP280;46804;51.786;19.520;2023-03-14T20:25:54;156423.63;;;8.82
60936;BMP280;46804;51.786;19.520;2023-03-14T20:29:56;156428.75;;;8.84
60936;BMP280;46804;51.786;19.520;2023-03-14T20:33:57;156446.69;;;8.91
60936;BMP280;46804;51.786;19.520;2023-03-14T20:37:57;156442.88;;;8.90
60936;BMP280;46804;51.786;19.520;2023-03-14T20:41:58;156450.56;;;8.93
60936;BMP280;46804;51.786;19.520;2023-03-14T20:46:00;156454.41;;;8.94
60936;BMP280;46804;51.786;19.520;2023-03-14T20:50:01;156459.53;;;8.96
60936;BMP280;46804;51.786;19.520;2023-03-14T20:54:03;156454.41;;;8.94
60936;BMP280;46804;51.786;19.520;2023-03-14T20:58:04;156450.56;;;8.93
60936;BMP280;46804;51.786;19.520;2023-03-14T21:02:04;156456.97;;;8.95
60936;BMP280;46804;51.786;19.520;2023-03-14T21:06:09;156456.97;;;8.95
60936;BMP280;46804;51.786;19.520;2023-03-14T21:10:12;156474.91;;;9.02
60936;BMP280;46804;51.786;19.520;2023-03-14T21:14:13;156469.75;;;9.00
60936;BMP280;46804;51.786;19.520;2023-03-14T21:18:14;156474.91;;;9.02
60936;BMP280;46804;51.786;19.520;2023-03-14T21:22:15;156473.63;;;9.02
60936;BMP280;46804;51.786;19.520;2023-03-14T21:26:17;156491.56;;;9.09
60936;BMP280;46804;51.786;19.520;2023-03-14T21:30:18;156491.56;;;9.09
60936;BMP280;46804;51.786;19.520;2023-03-14T21:34:19;156482.63;;;9.05
60936;BMP280;46804;51.786;19.520;2023-03-14T21:38:20;156487.75;;;9.07
60936;BMP280;46804;51.786;19.520;2023-03-14T21:42:22;156491.56;;;9.09
60936;BMP280;46804;51.786;19.520;2023-03-14T21:46:23;156504.41;;;9.14
60936;BMP280;46804;51.786;19.520;2023-03-14T21:50:25;156508.22;;;9.15
60936;BMP280;46804;51.786;19.520;2023-03-14T21:54:26;156509.50;;;9.15
60936;BMP280;46804;51.786;19.520;2023-03-14T21:58:28;156528.75;;;9.23
60936;BMP280;46804;51.786;19.520;2023-03-14T22:02:29;156542.84;;;9.28
60936;BMP280;46804;51.786;19.520;2023-03-14T22:06:31;156567.22;;;9.38
60936;BMP280;46804;51.786;19.520;2023-03-14T22:10:32;156562.09;;;9.36
60936;BMP280;46804;51.786;19.520;2023-03-14T22:14:33;156556.97;;;9.34
60936;BMP280;46804;51.786;19.520;2023-03-14T22:18:33;156587.72;;;9.46
60936;BMP280;46804;51.786;19.520;2023-03-14T22:22:37;156596.72;;;9.49
60936;BMP280;46804;51.786;19.520;2023-03-14T22:26:38;156595.44;;;9.48
60936;BMP280;46804;51.786;19.520;2023-03-14T22:30:39;156580.03;;;9.43
60936;BMP280;46804;51.786;19.520;2023-03-14T22:34:39;156549.25;;;9.31
60936;BMP280;46804;51.786;19.520;2023-03-14T22:38:40;156510.81;;;9.16
60936;BMP280;46804;51.786;19.520;2023-03-14T22:42:41;156492.88;;;9.09
60936;BMP280;46804;51.786;19.520;2023-03-14T22:46:41;156450.56;;;8.93
60936;BMP280;46804;51.786;19.520;2023-03-14T22:50:42;156387.75;;;8.69
60936;BMP280;46804;51.786;19.520;2023-03-14T22:54:43;156354.44;;;8.56
60936;BMP280;46804;51.786;19.520;2023-03-14T22:58:43;156246.81;;;8.14
60936;BMP280;46804;51.786;19.520;2023-03-14T23:02:44;156190.41;;;7.93
60936;BMP280;46804;51.786;19.520;2023-03-14T23:06:45;156038.03;;;7.34
60936;BMP280;46804;51.786;19.520;2023-03-14T23:10:46;155893.41;;;6.78
60936;BMP280;46804;51.786;19.520;2023-03-14T23:14:46;155734.78;;;6.17
60936;BMP280;46804;51.786;19.520;2023-03-14T23:18:47;155660.63;;;5.89
60936;BMP280;46804;51.786;19.520;2023-03-14T23:22:48;155592.81;;;5.63
60936;BMP280;46804;51.786;19.520;2023-03-14T23:26:48;155468.81;;;5.15
60936;BMP280;46804;51.786;19.520;2023-03-14T23:30:53;155403.69;;;4.90
60936;BMP280;46804;51.786;19.520;2023-03-14T23:34:55;155417.72;;;4.95
60936;BMP280;46804;51.786;19.520;2023-03-14T23:38:56;155392.19;;;4.85
60936;BMP280;46804;51.786;19.520;2023-03-14T23:42:56;155387.06;;;4.83